Benton, KS (67017)

8:08 PM CDT on March 22, 2017 (GMT -0500)
Benton | | Change Station

Elev 1355 ft 37.79 °N, 97.08 °W | Updated 3 seconds ago

Overcast
Overcast
55.2 °F
Feels Like 55.2 °F
N
16.8
Wind Variable Wind from SE
Gusts 19.9 mph

Today
High -- | Low -- °F
--% Chance of Precip.
Yesterday
High -- | Low -- °F
Precip. -- in
Pressure 30.11 in
Visibility 10.0 miles
Clouds Overcast 3200 ft
Dew Point 37 °F
Humidity 51%
Rainfall 0.00 in
Snow Depth Not available.
7:28 AM 7:42 PM
Waning Crescent, 28% visible
METAR KAAO 230054Z AUTO 12012KT 10SM OVC032 12/04 A3010 RMK AO2 SLP194 T01220039
Pressure 30.11 in
Visibility 10.0 miles
Clouds Overcast 3200 ft
Dew Point 37 °F
Humidity 51%
Rainfall 0.00 in
Snow Depth Not available.
7:28 AM 7:42 PM
Waning Crescent, 28% visible
METAR KAAO 230054Z AUTO 12012KT 10SM OVC032 12/04 A3010 RMK AO2 SLP194 T01220039

Get Severe Weather Alerts

Thanks for signing up!

Be on the lookout for a verification email in your inbox.

You'll start receiving the daily forecast at 8 AM.

×

10-Day Weather Forecast

Almanac

Astronomy

Mar. 22, 2017 Rise Set
Actual Time
Civil Twilight
Nautical Twilight
Astronomical Twilight
Moon
Length of Visible Light
Length of Day
Tomorrow will be .
, % of the Moon is Illuminated

Today's Extremes

State Highs State Lows

Community

WunderPhotos

Upload Photos

1,962,540 photos uploaded!

WunderBlog® & News

Nearby

Air Quality

  Air Quality AQ Index Pollutant
Not available.

Snow Depth

Station Depth Elevation

Earthquake Activity

City Distance Mag. Time & Date
Minimum magnitude displayed is 2.5.

Earthquake Activity

City Distance Mag. Time & Date
Minimum magnitude displayed is 2.5.

Coastal Water Temperatures

Place Temperature

Stations

Nearby Weather Stations

Station Location Temp. Windchill Dew Point Humidity Wind Precip. Elev Updated Type
                   

Watches & Warnings

There are currently no watches in effect.